Time;durP1;ratioP1;P1;durP2;ratioP2;P2;SDS_P1;SDS_P2;PMS_P1;PMS_P2;Temp;Humidity;BMP_temperature;BMP_pressure;BME280_temperature;BME280_humidity;BME280_pressure;Samples;Min_cycle;Max_cycle;Signal;HPM_P1;HPM_P2
2022/06/16 00:01:01;;;;;;;4.60;3.15;;;;;;;16.20;71.48;99742.09;5011085;28;20096;-79
2022/06/16 00:03:26;;;;;;;5.88;3.08;;;;;;;16.17;72.04;99737.03;5010879;28;20037;-78
2022/06/16 00:05:52;;;;;;;4.57;3.00;;;;;;;16.13;72.24;99735.56;5010812;28;20514;-78
2022/06/16 00:08:18;;;;;;;4.95;3.00;;;;;;;16.08;72.40;99728.94;4994714;28;20026;-78
2022/06/16 00:13:31;;;;;;;5.03;3.05;;;;;;;16.05;73.09;99732.59;5011407;28;20032;-78
2022/06/16 00:15:58;;;;;;;3.47;2.90;;;;;;;16.00;73.20;99726.81;5010610;28;20557;-78
2022/06/16 00:18:24;;;;;;;7.63;3.30;;;;;;;15.98;73.48;99727.91;5010900;28;20042;-79
2022/06/16 00:20:49;;;;;;;4.57;3.33;;;;;;;15.95;73.70;99724.50;4971658;28;20576;-79
2022/06/16 00:23:15;;;;;;;7.57;3.42;;;;;;;15.89;73.78;99713.59;4974678;28;20183;-79
2022/06/16 00:25:40;;;;;;;6.43;3.38;;;;;;;15.88;74.08;99710.09;5030922;28;20075;-78
2022/06/16 00:28:05;;;;;;;4.38;3.35;;;;;;;15.88;74.29;99714.50;5050189;28;20029;-79
2022/06/16 00:30:31;;;;;;;5.30;3.60;;;;;;;15.86;74.51;99714.63;5050330;28;20036;-79
2022/06/16 00:32:56;;;;;;;6.05;3.53;;;;;;;15.80;74.62;99715.06;5050204;28;20397;-78
2022/06/16 00:35:22;;;;;;;4.75;3.35;;;;;;;15.74;74.94;99707.56;5033603;28;20132;-78
2022/06/16 00:37:47;;;;;;;6.47;3.40;;;;;;;15.78;75.08;99722.19;5050263;28;20487;-78
2022/06/16 00:40:13;;;;;;;6.18;3.75;;;;;;;15.76;75.16;99715.34;5050055;28;20164;-79
2022/06/16 00:42:38;;;;;;;6.50;3.33;;;;;;;15.71;75.36;99711.22;5050262;28;20024;-78
2022/06/16 00:45:43;;;;;;;4.22;3.20;;;;;;;15.75;75.35;99719.75;5049779;28;20063;-78
2022/06/16 00:48:19;;;;;;;6.00;3.53;;;;;;;15.74;75.44;99715.44;5049956;28;20029;-78
2022/06/16 00:50:46;;;;;;;7.00;3.90;;;;;;;15.64;75.45;99698.63;5052195;28;20520;-79
2022/06/16 00:53:12;;;;;;;6.47;3.65;;;;;;;15.69;75.94;99714.94;5092460;28;20024;-78
2022/06/16 00:55:37;;;;;;;6.20;3.70;;;;;;;15.66;76.17;99707.25;5074287;28;20040;-79
2022/06/16 00:58:03;;;;;;;5.32;3.63;;;;;;;15.65;76.13;99702.94;5074250;28;20179;-78
2022/06/16 01:02:54;;;;;;;6.22;3.58;;;;;;;15.58;76.53;99701.63;5092331;28;20035;-79
2022/06/16 01:05:20;;;;;;;4.53;3.60;;;;;;;15.57;76.71;99708.66;5092634;28;20408;-79
2022/06/16 01:07:47;;;;;;;7.00;3.75;;;;;;;15.43;76.89;99683.34;5074196;28;20483;-79
2022/06/16 01:10:14;;;;;;;4.68;3.33;;;;;;;15.51;77.12;99703.00;5073831;28;20132;-78
2022/06/16 01:15:57;;;;;;;4.70;3.50;;;;;;;15.49;77.35;99697.84;5092614;28;20386;-79
2022/06/16 01:18:49;;;;;;;7.22;3.65;;;;;;;15.46;77.85;99696.28;5092206;28;20110;-78
2022/06/16 01:21:42;;;;;;;9.57;4.05;;;;;;;15.43;77.77;99699.09;4990095;28;20092;-78
2022/06/16 01:24:41;;;;;;;6.32;3.85;;;;;;;15.40;78.10;99698.44;4973833;28;20484;-78
2022/06/16 01:27:25;;;;;;;8.25;4.30;;;;;;;15.37;78.35;99709.97;4990288;28;20169;-79
2022/06/16 01:30:01;;;;;;;6.82;3.78;;;;;;;15.32;78.68;99691.06;4990256;28;20033;-78
2022/06/16 01:32:50;;;;;;;7.85;3.65;;;;;;;15.31;78.64;99689.38;4990270;28;20077;-78
2022/06/16 01:35:33;;;;;;;6.32;4.00;;;;;;;15.29;78.89;99687.78;4989994;28;20062;-78
2022/06/16 01:38:06;;;;;;;7.63;4.20;;;;;;;15.23;79.19;99695.13;4973632;28;20441;-78
2022/06/16 01:40:58;;;;;;;4.93;4.32;;;;;;;15.19;79.50;99684.94;4973831;28;20027;-79
2022/06/16 01:43:35;;;;;;;6.03;4.32;;;;;;;15.16;79.72;99682.50;4990132;28;20041;-78
2022/06/16 01:46:20;;;;;;;5.82;4.18;;;;;;;15.13;79.89;99685.34;4973524;28;20048;-78
2022/06/16 01:48:52;;;;;;;5.97;4.03;;;;;;;15.11;80.13;99682.81;4990140;28;20034;-78
2022/06/16 01:51:55;;;;;;;5.03;3.90;;;;;;;15.11;80.36;99692.47;4989836;28;20158;-79
2022/06/16 01:54:27;;;;;;;7.28;4.30;;;;;;;15.06;80.58;99690.13;4932009;29;20130;-79
2022/06/16 01:57:07;;;;;;;6.13;4.40;;;;;;;14.98;81.07;99674.06;4917933;29;20067;-79
2022/06/16 02:00:08;;;;;;;6.47;4.00;;;;;;;15.03;81.10;99679.00;5033795;28;20079;-78
2022/06/16 02:02:37;;;;;;;7.20;4.60;;;;;;;14.94;81.21;99673.41;4974551;28;20039;-79
2022/06/16 02:05:08;;;;;;;6.63;4.40;;;;;;;14.94;81.57;99670.78;4973976;28;20053;-78
2022/06/16 02:07:47;;;;;;;7.45;4.60;;;;;;;14.98;81.50;99677.50;4974310;28;20050;-78
2022/06/16 02:10:21;;;;;;;8.38;4.45;;;;;;;14.94;81.71;99681.28;4973927;28;20045;-78
2022/06/16 02:12:57;;;;;;;10.18;4.65;;;;;;;14.96;81.89;99687.28;4974083;28;20034;-78
2022/06/16 02:15:28;;;;;;;7.10;4.57;;;;;;;14.96;81.82;99689.06;4973870;28;20097;-79
2022/06/16 02:17:55;;;;;;;8.13;4.75;;;;;;;14.83;81.92;99661.91;4973998;28;20126;-78
2022/06/16 02:20:24;;;;;;;6.93;5.00;;;;;;;14.90;81.98;99677.16;4973674;28;20047;-78
2022/06/16 02:22:49;;;;;;;6.10;4.50;;;;;;;14.88;82.24;99676.44;4973845;28;20034;-79
2022/06/16 02:25:15;;;;;;;7.95;5.07;;;;;;;14.82;82.58;99673.34;4973696;28;20145;-79
2022/06/16 02:27:40;;;;;;;6.55;4.75;;;;;;;14.86;82.78;99674.84;4974003;28;20031;-78
2022/06/16 02:30:06;;;;;;;11.18;5.82;;;;;;;14.81;82.77;99669.88;4997317;28;20690;-79
2022/06/16 02:33:11;;;;;;;8.38;5.07;;;;;;;14.82;82.92;99676.81;5012824;28;20124;-78
2022/06/16 02:35:57;;;;;;;6.78;4.85;;;;;;;14.82;83.19;99679.44;4993202;28;20137;-79
2022/06/16 02:38:56;;;;;;;7.43;4.82;;;;;;;14.80;83.43;99677.88;4940835;29;20070;-78
2022/06/16 02:41:36;;;;;;;12.23;5.50;;;;;;;14.78;83.40;99674.47;4953974;29;20098;-79
2022/06/16 02:44:20;;;;;;;7.97;5.70;;;;;;;14.76;83.61;99679.84;4954530;29;20531;-79
2022/06/16 02:47:44;;;;;;;9.80;5.68;;;;;;;14.73;83.96;99682.63;4954383;29;20050;-78
2022/06/16 02:50:17;;;;;;;9.00;5.15;;;;;;;14.72;84.03;99671.31;4915709;29;20040;-78
2022/06/16 02:52:54;;;;;;;6.78;4.82;;;;;;;14.68;84.04;99659.34;4916110;29;20044;-78
2022/06/16 02:55:29;;;;;;;10.68;5.68;;;;;;;14.73;84.15;99674.78;4915821;29;20036;-79
2022/06/16 02:57:58;;;;;;;8.80;5.90;;;;;;;14.71;84.46;99671.44;4915912;29;20095;-78
2022/06/16 03:00:38;;;;;;;12.40;6.20;;;;;;;14.71;84.38;99674.88;4915644;29;20516;-79
2022/06/16 03:03:25;;;;;;;8.73;6.30;;;;;;;14.72;84.64;99670.47;4915689;29;20547;-78
2022/06/16 03:05:52;;;;;;;9.65;5.85;;;;;;;14.68;84.69;99672.44;4915590;29;20389;-78
2022/06/16 03:08:18;;;;;;;11.73;6.22;;;;;;;14.72;84.80;99675.72;4915573;29;20044;-79
2022/06/16 03:10:53;;;;;;;9.77;6.15;;;;;;;14.73;84.97;99680.03;4915621;29;20043;-78
2022/06/16 03:13:24;;;;;;;12.82;6.28;;;;;;;14.70;85.08;99662.69;4915641;29;20131;-78
2022/06/16 03:15:52;;;;;;;9.57;6.40;;;;;;;14.76;84.92;99665.88;4964658;28;20149;-78
2022/06/16 03:18:18;;;;;;;8.55;6.07;;;;;;;14.82;85.16;99682.06;4976006;28;20038;-78
2022/06/16 03:20:43;;;;;;;9.07;6.22;;;;;;;14.84;84.58;99661.84;4992520;28;20042;-79
2022/06/16 03:23:09;;;;;;;9.07;5.82;;;;;;;14.81;84.64;99648.91;4992237;28;20030;-79
2022/06/16 03:25:35;;;;;;;11.57;6.50;;;;;;;14.96;84.80;99663.69;5054052;28;20040;-78
2022/06/16 03:28:01;;;;;;;9.80;6.43;;;;;;;14.96;84.78;99657.59;5076320;28;20058;-78
2022/06/16 03:30:26;;;;;;;10.48;6.57;;;;;;;15.02;84.42;99651.09;5093881;28;20107;-78
2022/06/16 03:32:51;;;;;;;10.60;6.05;;;;;;;15.11;83.94;99672.31;5094285;28;20020;-79
2022/06/16 03:35:17;;;;;;;11.07;6.03;;;;;;;15.19;84.16;99650.84;5093943;28;20028;-79
2022/06/16 03:37:42;;;;;;;9.32;6.28;;;;;;;15.34;83.58;99667.38;5094388;28;20442;-78
2022/06/16 03:40:11;;;;;;;8.63;5.63;;;;;;;15.39;83.05;99657.41;5075869;28;20499;-78
2022/06/16 03:42:37;;;;;;;10.07;5.85;;;;;;;15.52;82.89;99666.13;5094203;28;20072;-78
2022/06/16 03:45:02;;;;;;;10.10;6.68;;;;;;;15.62;82.37;99656.69;5075968;28;20032;-79
2022/06/16 03:47:28;;;;;;;9.38;6.25;;;;;;;15.75;82.03;99664.59;5075603;28;20017;-78
2022/06/16 03:49:53;;;;;;;10.85;6.82;;;;;;;15.83;81.58;99659.69;5093846;28;20498;-79
2022/06/16 03:52:19;;;;;;;10.27;6.50;;;;;;;15.95;81.15;99658.00;5093647;28;20035;-78
2022/06/16 03:54:44;;;;;;;9.23;6.53;;;;;;;16.00;80.56;99634.88;5075573;28;20131;-79
2022/06/16 03:57:09;;;;;;;8.85;6.15;;;;;;;16.10;80.22;99645.63;5093620;28;20500;-79
2022/06/16 03:59:35;;;;;;;9.75;6.22;;;;;;;16.08;80.09;99639.59;5075605;28;20072;-78
2022/06/16 04:02:00;;;;;;;9.25;6.57;;;;;;;16.12;80.25;99641.06;5093743;28;20024;-79
2022/06/16 04:04:26;;;;;;;10.23;6.47;;;;;;;16.14;80.43;99649.72;5075077;28;20044;-78
2022/06/16 04:06:51;;;;;;;9.95;6.60;;;;;;;16.19;80.11;99643.19;5093511;28;20498;-79
2022/06/16 04:09:17;;;;;;;11.10;6.38;;;;;;;16.30;79.71;99641.56;5093134;28;20056;-78
2022/06/16 04:11:42;;;;;;;13.88;7.05;;;;;;;16.45;79.07;99643.97;5093560;28;20032;-78
2022/06/16 04:14:12;;;;;;;9.68;6.03;;;;;;;16.63;78.90;99639.16;5093294;28;20527;-79
2022/06/16 04:16:52;;;;;;;8.55;7.05;;;;;;;16.81;78.31;99628.31;5075280;28;20028;-79
2022/06/16 04:19:21;;;;;;;8.75;5.82;;;;;;;17.29;76.68;99644.09;5074478;28;20065;-79
2022/06/16 04:21:47;;;;;;;11.80;7.15;;;;;;;17.64;74.75;99641.41;5093195;28;20030;-78
2022/06/16 04:24:13;;;;;;;14.30;5.88;;;;;;;17.82;73.36;99637.41;5092923;28;20411;-78
2022/06/16 04:26:40;;;;;;;13.13;6.53;;;;;;;18.25;71.87;99613.00;5075232;28;20720;-78
2022/06/16 04:29:07;;;;;;;12.63;6.25;;;;;;;19.17;68.33;99626.69;5093342;28;20028;-79
2022/06/16 04:31:33;;;;;;;9.52;6.43;;;;;;;19.67;65.27;99633.03;5093161;28;20055;-79
2022/06/16 04:33:58;;;;;;;8.98;6.15;;;;;;;19.88;64.11;99609.25;5093065;28;20060;-79
2022/06/16 04:36:25;;;;;;;11.15;6.10;;;;;;;19.89;63.70;99624.16;5092639;28;20024;-79
2022/06/16 04:38:51;;;;;;;9.50;5.90;;;;;;;19.84;64.46;99620.22;5093145;28;20023;-78
2022/06/16 04:41:17;;;;;;;10.40;5.68;;;;;;;19.81;64.86;99616.03;5092841;28;20073;-79
2022/06/16 04:43:42;;;;;;;9.80;5.80;;;;;;;20.12;63.96;99616.03;5074693;28;20033;-79
2022/06/16 04:46:08;;;;;;;10.50;5.80;;;;;;;20.61;62.70;99617.88;5092793;28;20115;-78
2022/06/16 04:48:35;;;;;;;8.68;5.50;;;;;;;21.32;59.29;99603.56;5092774;28;20028;-78
2022/06/16 04:51:03;;;;;;;8.45;5.57;;;;;;;22.56;55.78;99598.00;5092606;28;20048;-79
2022/06/16 04:53:28;;;;;;;8.45;5.70;;;;;;;23.90;50.42;99596.16;5074426;28;20027;-78
2022/06/16 04:55:56;;;;;;;8.40;4.95;;;;;;;23.30;49.91;99610.19;5074435;28;20395;-79
2022/06/16 04:58:23;;;;;;;10.27;5.65;;;;;;;22.26;53.15;99599.16;5092459;28;20028;-79
2022/06/16 05:00:49;;;;;;;8.75;5.53;;;;;;;22.05;55.20;99595.88;5092612;28;20048;-79
2022/06/16 05:03:16;;;;;;;8.25;4.97;;;;;;;21.90;56.02;99598.97;5092217;28;20111;-79
2022/06/16 05:05:42;;;;;;;7.50;5.07;;;;;;;21.76;57.35;99585.38;5074193;28;20052;-79
2022/06/16 05:08:07;;;;;;;12.85;5.60;;;;;;;22.10;56.82;99581.16;5092554;28;20072;-79
2022/06/16 05:10:33;;;;;;;6.05;4.43;;;;;;;22.64;54.99;99587.47;5091110;28;20076;-79
2022/06/16 05:12:58;;;;;;;9.02;5.40;;;;;;;23.01;52.69;99581.22;5049419;28;20040;-79
2022/06/16 05:15:24;;;;;;;8.00;5.22;;;;;;;23.73;50.89;99587.25;5049476;28;20037;-80
2022/06/16 05:17:49;;;;;;;6.90;4.10;;;;;;;24.95;47.71;99588.69;5049405;28;20033;-80
2022/06/16 05:20:14;;;;;;;7.88;5.07;;;;;;;25.31;44.69;99589.19;5049269;28;20114;-79
2022/06/16 05:22:40;;;;;;;6.90;4.53;;;;;;;24.89;45.57;99587.50;5049608;28;20067;-80
2022/06/16 05:25:06;;;;;;;7.82;5.03;;;;;;;24.88;46.76;99592.00;5049490;28;20419;-79
2022/06/16 05:27:31;;;;;;;9.00;4.82;;;;;;;24.72;47.68;99591.97;5065878;28;20048;-79
2022/06/16 05:29:56;;;;;;;8.13;4.70;;;;;;;24.72;46.94;99591.13;5049460;28;20121;-80
2022/06/16 05:32:22;;;;;;;8.68;5.13;;;;;;;24.80;46.56;99581.31;5048688;28;20048;-80
2022/06/16 05:34:47;;;;;;;6.68;4.15;;;;;;;25.52;45.79;99580.69;5049381;28;20040;-80
2022/06/16 05:37:13;;;;;;;9.85;4.88;;;;;;;27.56;41.80;99568.88;5065859;28;20033;-80
2022/06/16 05:39:39;;;;;;;6.93;4.93;;;;;;;28.76;37.57;99582.81;5066137;28;20056;-80
2022/06/16 05:42:05;;;;;;;8.52;4.50;;;;;;;27.64;38.39;99579.47;5049508;28;20415;-80
2022/06/16 05:44:30;;;;;;;5.90;3.83;;;;;;;26.47;41.30;99578.06;5080046;28;20048;-79
2022/06/16 05:46:56;;;;;;;6.57;4.40;;;;;;;25.71;43.27;99569.66;5091761;28;20031;-79
2022/06/16 05:49:21;;;;;;;5.40;4.30;;;;;;;25.33;44.85;99585.38;5091619;28;20021;-80
2022/06/16 05:51:47;;;;;;;5.35;3.83;;;;;;;25.01;46.13;99588.00;5091822;28;20060;-80
2022/06/16 05:54:12;;;;;;;7.88;4.60;;;;;;;25.45;45.44;99587.69;5091632;28;20086;-80
2022/06/16 05:56:38;;;;;;;4.95;4.10;;;;;;;26.25;44.83;99582.31;5073392;28;20077;-80
2022/06/16 05:59:03;;;;;;;7.35;4.68;;;;;;;26.94;42.90;99587.78;5091925;28;20431;-80
2022/06/16 06:01:29;;;;;;;4.85;3.90;;;;;;;27.50;41.71;99593.69;5091644;28;20505;-80
2022/06/16 06:03:54;;;;;;;8.02;4.00;;;;;;;27.70;40.92;99604.69;5091951;28;20024;-80
2022/06/16 06:06:20;;;;;;;5.22;3.83;;;;;;;27.46;40.64;99601.22;5091409;28;20056;-80
2022/06/16 06:17:18;;;;;;;5.38;3.72;;;;;;;27.31;40.92;99595.03;5091427;28;20169;-80
2022/06/16 06:19:43;;;;;;;5.22;3.42;;;;;;;27.20;41.24;99595.47;5091910;28;20028;-80
2022/06/16 06:22:15;;;;;;;7.10;3.58;;;;;;;27.27;41.24;99588.38;5091729;28;20403;-80
2022/06/16 06:24:50;;;;;;;5.13;3.70;;;;;;;27.63;40.71;99571.66;5091606;28;20420;-80
2022/06/16 06:27:20;;;;;;;7.10;3.63;;;;;;;28.71;39.98;99589.75;5091482;28;20031;-80
2022/06/16 06:29:48;;;;;;;9.15;4.15;;;;;;;30.79;35.97;99585.38;5091723;28;20025;-80
2022/06/16 06:32:16;;;;;;;5.93;3.30;;;;;;;33.76;31.07;99583.63;5091537;28;20042;-81
2022/06/16 06:34:41;;;;;;;6.65;3.53;;;;;;;35.14;27.86;99588.28;5091518;28;20027;-80
2022/06/16 06:37:08;;;;;;;4.10;3.08;;;;;;;34.11;28.29;99581.16;5091354;28;20020;-82
2022/06/16 06:39:33;;;;;;;7.63;3.47;;;;;;;34.03;28.65;99583.34;5091711;28;20036;-82
2022/06/16 06:41:59;;;;;;;6.60;3.50;;;;;;;35.00;27.44;99587.66;5091818;28;20035;-80
2022/06/16 06:44:25;;;;;;;5.43;3.47;;;;;;;35.07;26.77;99595.69;5076855;28;20020;-80
2022/06/16 06:46:50;;;;;;;5.72;3.78;;;;;;;34.58;27.30;99578.72;5095110;28;20115;-80
2022/06/16 06:49:16;;;;;;;4.30;3.35;;;;;;;35.53;26.33;99586.00;5094855;28;20422;-81
2022/06/16 06:51:42;;;;;;;9.05;3.83;;;;;;;36.97;24.58;99569.66;5094898;28;20024;-81
2022/06/16 06:54:08;;;;;;;4.38;3.35;;;;;;;37.33;23.68;99585.69;5095287;28;20066;-81
2022/06/16 06:56:34;;;;;;;6.50;3.50;;;;;;;38.57;22.71;99570.78;5071797;28;20138;-81
2022/06/16 06:59:04;;;;;;;5.95;3.70;;;;;;;39.26;21.20;99580.94;5072320;28;20123;-81
2022/06/16 07:01:30;;;;;;;5.20;3.45;;;;;;;38.12;22.22;99574.59;5071700;28;20045;-81
2022/06/16 07:03:55;;;;;;;16.85;3.78;;;;;;;40.61;20.41;99578.34;5071969;28;20043;-81
2022/06/16 07:06:21;;;;;;;7.60;3.35;;;;;;;43.30;17.70;99577.66;5054877;28;20049;-81
2022/06/16 07:08:47;;;;;;;4.80;3.10;;;;;;;45.01;16.31;99584.25;5072129;28;20111;-82
2022/06/16 07:11:12;;;;;;;4.45;3.10;;;;;;;44.89;16.15;99581.16;5072037;28;20041;-82
2022/06/16 07:13:38;;;;;;;6.32;3.88;;;;;;;44.40;16.49;99586.00;5071796;28;20412;-81
2022/06/16 07:16:04;;;;;;;6.75;3.42;;;;;;;42.47;17.43;99583.19;5055093;28;20047;-82
2022/06/16 07:18:30;;;;;;;5.75;3.22;;;;;;;41.96;18.30;99567.03;5071702;28;20057;-82
2022/06/16 07:20:55;;;;;;;4.93;3.60;;;;;;;42.77;17.59;99583.03;5071842;28;20115;-81
2022/06/16 07:23:21;;;;;;;4.10;2.80;;;;;;;40.78;18.83;99572.63;5054617;28;20064;-81
2022/06/16 07:25:48;;;;;;;5.18;3.28;;;;;;;37.89;21.80;99575.69;5071737;28;20064;-81
2022/06/16 07:28:14;;;;;;;6.05;3.83;;;;;;;35.89;24.18;99576.75;5068112;28;20032;-81
2022/06/16 07:30:41;;;;;;;3.47;3.08;;;;;;;34.20;26.28;99569.00;5073673;28;20059;-81
2022/06/16 07:33:07;;;;;;;9.23;3.53;;;;;;;33.81;27.88;99564.03;5073938;28;20111;-81
2022/06/16 07:35:32;;;;;;;9.10;3.63;;;;;;;34.52;27.51;99562.59;5073484;28;20057;-81
2022/06/16 07:37:58;;;;;;;9.68;3.70;;;;;;;34.77;27.42;99570.56;5072626;28;20024;-81
2022/06/16 07:40:24;;;;;;;5.05;3.65;;;;;;;34.61;26.69;99558.50;5073667;28;20040;-81
2022/06/16 07:42:54;;;;;;;5.63;3.75;;;;;;;35.11;26.99;99577.13;5073660;28;20671;-81
2022/06/16 07:45:20;;;;;;;6.05;3.15;;;;;;;38.77;23.34;99568.28;5072083;28;20547;-81
2022/06/16 07:47:46;;;;;;;6.05;3.67;;;;;;;42.79;19.44;99563.56;5072946;28;20302;-82
2022/06/16 07:50:12;;;;;;;4.05;3.20;;;;;;;45.35;16.39;99572.13;5073173;28;20408;-81
2022/06/16 07:52:38;;;;;;;6.15;3.35;;;;;;;46.81;15.25;99569.28;5072109;28;20383;-82
2022/06/16 07:55:05;;;;;;;5.82;3.55;;;;;;;47.45;13.84;99555.22;5072745;28;20035;-82
2022/06/16 07:57:34;;;;;;;4.82;3.58;;;;;;;46.74;14.45;99580.75;5072781;28;20025;-82
2022/06/16 08:00:02;;;;;;;5.50;3.33;;;;;;;46.23;15.25;99573.69;5072654;28;20040;-81
2022/06/16 08:02:28;;;;;;;3.35;2.88;;;;;;;45.71;15.93;99570.31;5072435;28;20044;-82
2022/06/16 08:04:54;;;;;;;4.45;2.80;;;;;;;46.16;15.41;99577.94;5080229;28;20082;-81
2022/06/16 08:07:19;;;;;;;5.43;3.00;;;;;;;47.05;14.88;99577.25;5074286;28;20015;-81
2022/06/16 08:09:45;;;;;;;3.42;2.65;;;;;;;47.25;14.30;99575.91;5074052;28;20031;-82
2022/06/16 08:12:13;;;;;;;5.28;2.83;;;;;;;45.95;14.72;99572.06;5073872;28;20064;-82
2022/06/16 08:14:43;;;;;;;4.47;3.13;;;;;;;44.44;16.58;99578.78;5073562;28;20020;-81
2022/06/16 08:17:18;;;;;;;5.68;3.00;;;;;;;42.53;17.19;99571.94;5092121;28;20075;-81
2022/06/16 08:19:44;;;;;;;5.00;3.00;;;;;;;40.02;20.26;99572.41;5072290;28;20050;-80
2022/06/16 08:22:12;;;;;;;6.22;3.22;;;;;;;38.06;21.87;99571.00;5091691;28;20484;-79
2022/06/16 08:24:38;;;;;;;7.50;3.38;;;;;;;36.55;23.66;99562.94;5068328;28;20048;-80
2022/06/16 08:27:04;;;;;;;7.05;3.50;;;;;;;35.36;25.44;99563.38;5068993;28;20444;-80
2022/06/16 08:29:31;;;;;;;5.63;3.58;;;;;;;34.46;27.01;99557.00;5067746;28;20135;-80
2022/06/16 08:31:57;;;;;;;4.47;3.17;;;;;;;33.82;28.32;99562.97;5068876;28;20024;-80
2022/06/16 08:34:23;;;;;;;3.40;3.08;;;;;;;33.26;29.27;99565.59;5051933;28;20062;-80
2022/06/16 08:36:48;;;;;;;8.77;3.22;;;;;;;32.86;29.86;99564.22;5067802;28;20231;-80
2022/06/16 08:39:13;;;;;;;3.97;3.13;;;;;;;32.40;31.00;99558.06;5065853;28;20075;-79
2022/06/16 08:42:04;;;;;;;4.88;3.75;;;;;;;32.14;32.11;99555.47;5069286;28;20034;-80
2022/06/16 08:44:35;;;;;;;7.70;4.03;;;;;;;31.33;32.47;99555.84;5029892;28;20174;-80
2022/06/16 08:47:18;;;;;;;6.63;4.13;;;;;;;30.71;34.09;99549.75;5029934;28;20784;-79
2022/06/16 08:50:06;;;;;;;5.55;3.67;;;;;;;30.19;34.98;99545.91;5029944;28;20088;-79
2022/06/16 08:53:04;;;;;;;6.85;3.33;;;;;;;30.03;35.29;99550.56;5029874;28;20026;-79
2022/06/16 08:55:46;;;;;;;4.97;3.47;;;;;;;29.65;36.03;99536.75;5029830;28;20084;-79
2022/06/16 08:58:29;;;;;;;5.00;3.50;;;;;;;29.53;36.76;99551.69;5030019;28;20158;-80
2022/06/16 09:01:10;;;;;;;6.00;3.10;;;;;;;29.75;37.29;99555.16;5030310;28;20713;-79
2022/06/16 09:03:44;;;;;;;6.13;3.30;;;;;;;29.91;36.99;99546.78;5049506;28;20376;-80
2022/06/16 09:06:48;;;;;;;6.30;3.75;;;;;;;29.90;35.88;99552.38;5049615;28;20053;-79
2022/06/16 09:12:20;;;;;;;5.22;3.28;;;;;;;30.06;36.36;99544.78;4988036;28;20056;-81
2022/06/16 09:15:30;;;;;;;6.68;3.40;;;;;;;30.15;35.40;99544.66;4972349;28;20510;-79
2022/06/16 09:18:07;;;;;;;6.07;3.35;;;;;;;30.43;35.99;99544.56;4958065;28;20498;-80
2022/06/16 09:20:57;;;;;;;5.88;3.08;;;;;;;30.54;36.02;99539.38;4955918;28;20032;-80
2022/06/16 09:23:40;;;;;;;5.63;3.42;;;;;;;30.66;35.91;99547.69;4949783;29;20046;-80
2022/06/16 09:26:14;;;;;;;5.57;3.40;;;;;;;30.68;36.59;99548.31;4933789;29;20142;-80
2022/06/16 09:28:46;;;;;;;5.35;3.53;;;;;;;30.60;36.43;99545.81;4949889;29;20118;-79
2022/06/16 09:31:31;;;;;;;6.20;3.67;;;;;;;30.59;34.99;99538.78;4947790;29;20106;-80
2022/06/16 09:34:06;;;;;;;5.53;3.08;;;;;;;30.57;34.79;99555.13;4948491;29;20043;-80
2022/06/16 09:36:40;;;;;;;3.58;2.83;;;;;;;30.47;33.20;99543.94;4939070;29;20036;-81
2022/06/16 09:39:37;;;;;;;3.80;2.92;;;;;;;30.07;32.36;99541.06;4954829;28;20039;-79
2022/06/16 09:45:31;;;;;;;6.25;3.17;;;;;;;29.80;32.71;99550.88;4952008;28;20058;-79
2022/06/16 09:48:05;;;;;;;3.20;2.90;;;;;;;29.91;33.17;99554.00;4932054;29;20043;-79
2022/06/16 09:50:52;;;;;;;4.78;2.80;;;;;;;29.95;33.80;99550.72;4915920;29;20119;-79
2022/06/16 09:53:36;;;;;;;3.28;2.90;;;;;;;29.83;33.15;99555.00;4934247;28;20046;-79
2022/06/16 09:56:21;;;;;;;4.15;2.70;;;;;;;30.01;32.98;99551.81;5009434;28;20521;-79
2022/06/16 09:59:23;;;;;;;3.67;2.90;;;;;;;30.03;32.57;99539.81;5009378;28;20085;-79
2022/06/16 10:01:55;;;;;;;5.85;3.05;;;;;;;29.85;32.30;99542.22;4970422;28;20042;-79
2022/06/16 10:04:21;;;;;;;5.38;2.90;;;;;;;29.61;33.73;99535.47;4954013;28;20549;-79
2022/06/16 10:07:10;;;;;;;3.55;2.72;;;;;;;29.47;34.25;99547.13;4970102;28;20031;-79
2022/06/16 10:09:57;;;;;;;5.88;2.83;;;;;;;29.34;34.31;99551.38;4969184;28;20074;-79
2022/06/16 10:13:01;;;;;;;4.22;3.20;;;;;;;29.26;34.91;99543.47;4970075;28;20042;-79
2022/06/16 10:15:36;;;;;;;4.78;2.80;;;;;;;29.27;34.91;99539.75;4950177;28;20035;-79
2022/06/16 10:18:03;;;;;;;5.47;3.08;;;;;;;29.13;35.22;99542.53;4952540;28;20162;-79
2022/06/16 10:20:30;;;;;;;4.43;2.92;;;;;;;28.77;35.72;99536.22;4954196;29;20043;-80
2022/06/16 10:23:06;;;;;;;2.97;2.67;;;;;;;28.89;36.67;99544.56;4954117;28;20042;-79
2022/06/16 10:25:39;;;;;;;3.83;3.00;;;;;;;29.15;36.53;99541.31;4989240;28;20034;-80
2022/06/16 10:28:38;;;;;;;5.70;3.40;;;;;;;29.50;35.80;99533.34;4993106;28;20035;-79
2022/06/16 10:31:06;;;;;;;4.30;2.77;;;;;;;29.87;34.20;99545.53;4993183;28;20129;-80
2022/06/16 10:33:35;;;;;;;4.05;3.10;;;;;;;30.09;33.65;99540.91;4992919;28;20062;-80
2022/06/16 10:36:12;;;;;;;4.07;2.90;;;;;;;30.25;33.16;99537.84;5038906;28;20040;-80
2022/06/16 10:38:42;;;;;;;5.47;2.88;;;;;;;30.42;33.59;99545.56;5055101;28;20039;-79
2022/06/16 10:41:30;;;;;;;8.40;2.85;;;;;;;30.56;33.08;99545.41;5072167;28;20476;-79
2022/06/16 10:43:59;;;;;;;4.78;2.92;;;;;;;30.65;32.95;99543.34;5071717;28;20032;-80
2022/06/16 10:46:35;;;;;;;5.93;3.08;;;;;;;30.62;31.83;99545.63;5062053;28;20032;-79
2022/06/16 10:49:06;;;;;;;3.65;2.92;;;;;;;30.50;31.84;99548.88;5074578;28;20024;-79
2022/06/16 10:51:35;;;;;;;5.05;3.10;;;;;;;30.26;31.81;99546.78;5074205;28;20051;-80
2022/06/16 10:54:01;;;;;;;3.92;3.10;;;;;;;29.75;31.16;99547.97;5074462;28;20052;-81
2022/06/16 10:56:28;;;;;;;6.60;2.63;;;;;;;29.53;31.50;99555.22;5074380;28;20071;-80
2022/06/16 10:59:16;;;;;;;6.32;2.88;;;;;;;29.48;31.76;99548.78;5073968;28;20615;-79
2022/06/16 11:02:00;;;;;;;5.72;2.80;;;;;;;29.57;31.83;99550.31;5072794;28;20365;-79
2022/06/16 11:04:35;;;;;;;3.28;2.80;;;;;;;29.67;32.18;99552.66;5072619;28;20091;-81
2022/06/16 11:07:02;;;;;;;3.80;2.72;;;;;;;29.75;32.87;99544.41;5074199;28;20441;-79
2022/06/16 11:09:32;;;;;;;3.40;2.50;;;;;;;29.68;32.77;99547.09;5074103;28;20495;-81
2022/06/16 11:12:22;;;;;;;5.70;2.92;;;;;;;29.61;31.57;99543.53;5073944;28;20029;-80
2022/06/16 11:15:01;;;;;;;4.78;2.88;;;;;;;29.40;32.00;99533.66;5072102;28;20407;-80
2022/06/16 11:17:40;;;;;;;4.30;3.13;;;;;;;29.43;32.91;99537.81;5072880;28;20021;-81
2022/06/16 11:20:12;;;;;;;5.80;3.10;;;;;;;29.21;32.38;99539.72;5073897;28;20055;-80
2022/06/16 11:22:41;;;;;;;3.05;2.70;;;;;;;28.89;32.75;99531.16;5073639;28;20028;-81
2022/06/16 11:25:30;;;;;;;3.75;2.80;;;;;;;28.85;33.06;99544.13;5074175;28;20078;-80
2022/06/16 11:28:10;;;;;;;4.63;3.00;;;;;;;28.90;34.12;99543.53;5072469;28;20154;-81
2022/06/16 11:31:03;;;;;;;4.18;3.00;;;;;;;28.87;34.67;99540.44;5072329;28;20028;-81
2022/06/16 11:36:29;;;;;;;3.92;3.10;;;;;;;28.45;35.05;99550.94;5073805;28;20238;-81
2022/06/16 11:39:05;;;;;;;5.47;3.15;;;;;;;28.08;37.67;99539.34;5073491;28;20490;-81
2022/06/16 11:41:32;;;;;;;4.80;2.70;;;;;;;27.94;37.91;99542.03;5073738;28;20070;-81
2022/06/16 11:43:57;;;;;;;5.18;3.08;;;;;;;27.81;36.58;99558.75;5073610;28;20032;-80
2022/06/16 11:46:43;;;;;;;4.00;2.83;;;;;;;27.63;37.44;99571.66;5071910;28;20070;-80
2022/06/16 11:49:30;;;;;;;3.15;2.78;;;;;;;27.44;38.43;99602.44;5073314;28;20020;-80
2022/06/16 11:52:08;;;;;;;4.80;2.97;;;;;;;27.02;40.78;99606.44;5073299;28;20021;-80
2022/06/16 11:54:36;;;;;;;6.03;3.20;;;;;;;26.55;45.49;99604.75;5072074;28;20033;-80
2022/06/16 11:57:22;;;;;;;6.38;3.20;;;;;;;26.09;50.14;99612.59;5073612;28;20021;-80
2022/06/16 12:00:00;;;;;;;4.80;3.10;;;;;;;25.47;54.68;99612.34;5072001;28;20082;-80
2022/06/16 12:02:45;;;;;;;5.40;2.80;;;;;;;25.10;57.51;99614.53;5072353;28;20052;-80
2022/06/16 12:05:19;;;;;;;7.40;3.47;;;;;;;24.90;59.57;99605.13;5071875;28;20053;-80
2022/06/16 12:08:12;;;;;;;4.50;3.50;;;;;;;24.62;63.71;99601.94;5070748;28;21777;-80
2022/06/16 12:10:51;;;;;;;5.35;3.55;;;;;;;24.40;66.67;99600.72;5072999;28;20028;-80
2022/06/16 12:13:39;;;;;;;4.80;3.15;;;;;;;24.18;68.04;99596.75;5072123;28;20040;-80
2022/06/16 12:16:28;;;;;;;5.50;3.60;;;;;;;24.20;68.83;99594.78;5073293;28;20622;-80
2022/06/16 12:19:17;;;;;;;5.47;4.10;;;;;;;24.22;70.62;99589.28;5072944;28;20038;-80
2022/06/16 12:21:42;;;;;;;7.35;3.67;;;;;;;24.23;68.04;99594.47;5071562;28;20077;-80